createdAt,value
2023-09-06T00:00:00.479Z,73
2023-09-06T00:15:00.439Z,74
2023-09-06T00:30:00.445Z,74
2023-09-06T00:45:00.466Z,74
2023-09-06T01:00:00.562Z,75
2023-09-06T01:15:00.534Z,75
2023-09-06T01:30:00.511Z,75
2023-09-06T01:45:00.432Z,75
2023-09-06T02:00:00.537Z,76
2023-09-06T02:15:00.457Z,76
2023-09-06T02:30:00.443Z,76
2023-09-06T02:45:00.438Z,76
2023-09-06T03:00:00.487Z,76
2023-09-06T03:15:00.456Z,77
2023-09-06T03:30:00.558Z,76
2023-09-06T03:45:00.411Z,76
2023-09-06T04:00:00.564Z,76
2023-09-06T04:15:00.442Z,77
2023-09-06T04:30:00.490Z,77
2023-09-06T04:45:00.424Z,77
2023-09-06T05:15:00.807Z,78
2023-09-06T05:30:00.765Z,79
2023-09-06T05:45:00.726Z,79
2023-09-06T06:00:00.743Z,80
2023-09-06T06:15:00.849Z,80
2023-09-06T06:30:00.993Z,80
2023-09-06T06:45:00.361Z,80
2023-09-06T07:00:00.436Z,80
2023-09-06T07:15:00.356Z,79
2023-09-06T07:30:00.401Z,79
2023-09-06T07:45:00.403Z,77
2023-09-06T08:00:00.355Z,76
2023-09-06T09:15:22.481Z,63
2023-09-06T09:30:01.287Z,60
2023-09-06T09:45:00.739Z,61
2023-09-06T10:00:00.665Z,59
2023-09-06T10:15:00.565Z,58
2023-09-06T10:45:01.029Z,58
2023-09-06T11:00:00.537Z,58
2023-09-06T11:15:00.382Z,58
2023-09-06T11:30:00.462Z,55
2023-09-06T11:45:00.388Z,55
2023-09-06T12:00:00.401Z,55
2023-09-06T12:15:00.591Z,53
2023-09-06T12:30:00.662Z,53
2023-09-06T12:45:00.554Z,55
2023-09-06T13:00:00.468Z,58
2023-09-06T13:15:00.448Z,56
2023-09-06T13:30:00.425Z,55
2023-09-06T13:45:00.615Z,55
2023-09-06T14:00:00.460Z,55
2023-09-06T14:30:00.708Z,54
2023-09-06T14:45:00.639Z,55
2023-09-06T15:00:00.845Z,56
2023-09-06T15:15:00.737Z,57
2023-09-06T15:30:00.908Z,58
2023-09-06T15:45:00.626Z,58
2023-09-06T16:00:12.924Z,59
2023-09-06T16:15:00.685Z,59
2023-09-06T16:30:01.018Z,60
2023-09-06T16:45:00.597Z,60
2023-09-06T17:00:00.572Z,61
2023-09-06T17:15:00.625Z,62
2023-09-06T17:30:00.789Z,62
2023-09-06T17:45:00.579Z,62
2023-09-06T18:00:00.556Z,62
2023-09-06T18:15:03.693Z,62
2023-09-06T18:30:00.668Z,62
2023-09-06T18:45:00.632Z,62
2023-09-06T19:00:00.592Z,62
2023-09-06T19:15:00.563Z,62
2023-09-06T19:30:00.659Z,62
2023-09-06T19:45:00.560Z,62
2023-09-06T20:00:00.564Z,62
2023-09-06T20:15:00.607Z,62
2023-09-06T20:30:00.816Z,62
2023-09-06T20:45:00.542Z,62
2023-09-06T21:00:00.638Z,62
2023-09-06T21:15:00.689Z,62
2023-09-06T21:30:00.653Z,62
2023-09-06T21:45:00.594Z,62
2023-09-06T22:00:00.624Z,62
2023-09-06T22:15:00.561Z,62
2023-09-06T22:30:00.668Z,62
2023-09-06T22:45:00.585Z,62
2023-09-06T23:00:00.526Z,62
2023-09-06T23:15:00.587Z,62
2023-09-06T23:30:00.632Z,62
2023-09-06T23:45:00.730Z,62
